WXM80 ListenWXM80 Stop

You find our weather info also at:

UK Metoffice

WeatherCloud

Weather Underground

Northeastern Weather Network

AWEKAS

Citizen Weather Observer Program (CWOP)

HAMweather, WeatherForYou, PWS Weather


Weather Underground History page Text

Daily Summary for August 13, 2017 Units:  English    Metric   Both
« Previous Day
Next Day »
Daily Weekly Monthly Yearly Custom
  High: Low: Average:
Temperature: 89.4 °F 68.3 °F 78 °F
Dew Point: 72.1 °F 64.0 °F 68.7 °F
Humidity: 97 % 46 % 76 %
Wind Speed: 4.4 mph 0.0 mph 0.9 mph
Wind Gust: 10.4 mph - -
Wind:- - West
Pressure: 29.97 in 29.78 in -
Precipitation: 0.00 in    
Historical Graphs
 
 
Tabular Data for August 13, 2017
Time Temperature Dew Point Pressure Wind Wind Speed Wind Gust Humidity Rainfall Rate (Hourly)
00:02 73.4 °F 71.3 °F 29.82 in Calm   3.5 mph 93 % 0.00 in
00:07 73.4 °F 71.3 °F 29.83 in SW 1.7 mph 3.0 mph 93 % 0.00 in
00:13 73.5 °F 71.4 °F 29.82 in Calm   1.2 mph 93 % 0.00 in
00:18 73.5 °F 71.4 °F 29.82 in SE 0.1 mph 1.2 mph 93 % 0.00 in
00:23 73.5 °F 71.4 °F 29.82 in Calm     93 % 0.00 in
00:28 73.5 °F 71.4 °F 29.83 in WSW 0.2 mph 2.0 mph 93 % 0.00 in
00:33 73.6 °F 71.4 °F 29.83 in Calm   2.3 mph 93 % 0.00 in
00:38 73.6 °F 71.4 °F 29.82 in Calm   1.2 mph 93 % 0.00 in
00:43 73.7 °F 71.5 °F 29.82 in Calm     93 % 0.00 in
00:48 73.7 °F 71.5 °F 29.82 in Calm   1.2 mph 93 % 0.00 in
00:53 73.8 °F 71.6 °F 29.82 in SE 0.1 mph 1.2 mph 93 % 0.00 in
00:58 73.8 °F 71.6 °F 29.82 in Calm     93 % 0.00 in
01:03 73.8 °F 71.6 °F 29.81 in SSE 1.1 mph 3.5 mph 93 % 0.00 in
01:08 73.8 °F 71.6 °F 29.82 in Calm   1.2 mph 93 % 0.00 in
01:13 73.8 °F 71.6 °F 29.82 in Calm     93 % 0.00 in
01:18 73.8 °F 71.6 °F 29.82 in SE 0.4 mph 2.3 mph 93 % 0.00 in
01:23 73.8 °F 71.6 °F 29.81 in Calm   1.2 mph 93 % 0.00 in
01:28 73.8 °F 71.6 °F 29.81 in Calm     93 % 0.00 in
01:33 73.7 °F 71.2 °F 29.82 in SE 0.2 mph 1.2 mph 92 % 0.00 in
01:38 73.6 °F 71.1 °F 29.82 in Calm     92 % 0.00 in
01:43 73.6 °F 71.1 °F 29.82 in SSE 0.2 mph 1.2 mph 92 % 0.00 in
01:48 73.5 °F 71.4 °F 29.82 in SSE 0.3 mph 1.0 mph 93 % 0.00 in
01:53 73.5 °F 71.4 °F 29.81 in Calm     93 % 0.00 in
01:58 73.5 °F 71.4 °F 29.81 in Calm     93 % 0.00 in
02:03 73.4 °F 71.3 °F 29.81 in Calm     93 % 0.00 in
02:08 73.4 °F 71.3 °F 29.81 in South 0.1 mph 1.2 mph 93 % 0.00 in
02:13 73.4 °F 71.3 °F 29.81 in Calm   2.3 mph 93 % 0.00 in
02:18 73.4 °F 71.3 °F 29.81 in Calm     93 % 0.00 in
02:23 73.4 °F 71.3 °F 29.81 in West 0.2 mph 1.2 mph 93 % 0.00 in
02:29 73.4 °F 71.3 °F 29.80 in West 0.1 mph 1.2 mph 93 % 0.00 in
02:34 73.4 °F 71.6 °F 29.80 in Calm     94 % 0.00 in
02:39 73.4 °F 71.6 °F 29.80 in Calm   1.2 mph 94 % 0.00 in
02:44 73.3 °F 71.5 °F 29.80 in Calm     94 % 0.00 in
02:49 73.3 °F 71.2 °F 29.80 in Calm     93 % 0.00 in
02:54 73.3 °F 71.2 °F 29.80 in Calm     93 % 0.00 in
02:59 73.2 °F 71.1 °F 29.80 in Calm     93 % 0.00 in
03:04 73.1 °F 71.0 °F 29.80 in Calm     93 % 0.00 in
03:09 73.0 °F 70.9 °F 29.80 in Calm     93 % 0.00 in
03:14 72.9 °F 70.8 °F 29.79 in Calm     93 % 0.00 in
03:19 72.8 °F 70.7 °F 29.80 in Calm     93 % 0.00 in
03:24 72.8 °F 70.7 °F 29.79 in Calm     93 % 0.00 in
03:29 72.6 °F 70.5 °F 29.79 in Calm     93 % 0.00 in
03:35 72.5 °F 70.4 °F 29.79 in West 0.2 mph 1.0 mph 93 % 0.00 in
03:40 72.4 °F 70.3 °F 29.79 in Calm   2.3 mph 93 % 0.00 in
03:45 72.3 °F 70.2 °F 29.79 in Calm     93 % 0.00 in
03:50 72.2 °F 70.1 °F 29.79 in Calm     93 % 0.00 in
03:55 72.1 °F 70.0 °F 29.79 in West 0.8 mph 2.3 mph 93 % 0.00 in
04:00 72.1 °F 70.0 °F 29.79 in WSW 0.7 mph 3.5 mph 93 % 0.00 in
04:05 72.0 °F 69.9 °F 29.79 in Calm   1.2 mph 93 % 0.00 in
04:10 72.0 °F 70.2 °F 29.78 in Calm   1.2 mph 94 % 0.00 in
04:15 71.9 °F 70.1 °F 29.79 in WSW 0.1 mph 2.3 mph 94 % 0.00 in
04:20 71.9 °F 70.1 °F 29.79 in WSW 0.2 mph 2.3 mph 94 % 0.00 in
04:25 71.8 °F 70.0 °F 29.79 in Calm     94 % 0.00 in
04:30 71.8 °F 70.0 °F 29.79 in Calm     94 % 0.00 in
04:35 71.7 °F 69.9 °F 29.79 in Calm   1.2 mph 94 % 0.00 in
04:40 71.6 °F 69.8 °F 29.79 in Calm     94 % 0.00 in
04:45 71.5 °F 69.7 °F 29.79 in Calm     94 % 0.00 in
04:50 71.4 °F 69.6 °F 29.79 in Calm     94 % 0.00 in
04:55 71.3 °F 69.5 °F 29.79 in Calm     94 % 0.00 in
05:00 71.2 °F 69.4 °F 29.79 in Calm     94 % 0.00 in
05:05 71.1 °F 69.3 °F 29.79 in Calm     94 % 0.00 in
05:10 71.0 °F 69.2 °F 29.80 in Calm     94 % 0.00 in
05:15 71.0 °F 69.2 °F 29.80 in Calm     94 % 0.00 in
05:20 70.9 °F 69.1 °F 29.80 in Calm     94 % 0.00 in
05:25 70.8 °F 69.0 °F 29.80 in Calm     94 % 0.00 in
05:30 70.8 °F 69.0 °F 29.80 in WSW 0.1 mph 1.2 mph 94 % 0.00 in
05:35 70.7 °F 68.9 °F 29.80 in Calm     94 % 0.00 in
05:36 70.7 °F 68.9 °F 29.80 in Calm   2.0 mph 94 % 0.00 in
05:41 70.7 °F 68.9 °F 29.81 in Calm   1.0 mph 94 % 0.00 in
05:46 70.6 °F 68.8 °F 29.81 in Calm   1.0 mph 94 % 0.00 in
05:51 70.6 °F 68.8 °F 29.81 in Calm     94 % 0.00 in
05:56 70.5 °F 68.7 °F 29.81 in Calm     94 % 0.00 in
06:01 70.4 °F 68.9 °F 29.81 in Calm     95 % 0.00 in
06:06 70.4 °F 68.9 °F 29.81 in Calm     95 % 0.00 in
06:11 70.3 °F 68.8 °F 29.82 in Calm     95 % 0.00 in
06:16 70.3 °F 68.8 °F 29.81 in WSW 0.3 mph 2.3 mph 95 % 0.00 in
06:18 70.3 °F 68.8 °F 29.82 in Calm     95 % 0.00 in
06:23 70.3 °F 68.8 °F 29.82 in Calm   1.2 mph 95 % 0.00 in
06:28 70.3 °F 68.8 °F 29.82 in Calm   2.3 mph 95 % 0.00 in
06:33 70.3 °F 68.8 °F 29.82 in Calm   1.2 mph 95 % 0.00 in
06:38 70.4 °F 69.2 °F 29.82 in WSW 0.3 mph 1.2 mph 96 % 0.00 in
06:43 70.4 °F 69.2 °F 29.82 in Calm     96 % 0.00 in
06:48 70.5 °F 69.3 °F 29.82 in Calm   1.2 mph 96 % 0.00 in
06:53 70.5 °F 69.3 °F 29.82 in Calm     96 % 0.00 in
06:58 70.6 °F 69.4 °F 29.82 in Calm     96 % 0.00 in
07:03 70.7 °F 69.5 °F 29.82 in WSW 0.5 mph 2.3 mph 96 % 0.00 in
07:08 70.8 °F 69.6 °F 29.82 in WNW 1.8 mph 4.0 mph 96 % 0.00 in
07:13 70.9 °F 69.7 °F 29.82 in West 2.1 mph 4.0 mph 96 % 0.00 in
07:18 71.2 °F 70.3 °F 29.82 in WNW 1.1 mph 3.5 mph 97 % 0.00 in
07:23 71.4 °F 70.5 °F 29.83 in West 1.7 mph 3.5 mph 97 % 0.00 in
07:28 71.6 °F 70.7 °F 29.83 in West 0.3 mph 2.3 mph 97 % 0.00 in
07:33 71.8 °F 70.9 °F 29.83 in West 1.7 mph 3.0 mph 97 % 0.00 in
07:38 72.0 °F 71.1 °F 29.83 in WNW 0.6 mph 3.5 mph 97 % 0.00 in
07:43 72.1 °F 71.2 °F 29.83 in West 2.2 mph 3.5 mph 97 % 0.00 in
07:48 72.2 °F 71.3 °F 29.83 in WNW 1.2 mph 3.5 mph 97 % 0.00 in
07:53 72.2 °F 71.3 °F 29.83 in West 2.6 mph 4.0 mph 97 % 0.00 in
07:58 72.3 °F 71.4 °F 29.83 in WNW 0.6 mph 3.5 mph 97 % 0.00 in
08:03 72.3 °F 71.4 °F 29.84 in WNW 1.3 mph 4.6 mph 97 % 0.00 in
08:08 72.3 °F 71.4 °F 29.84 in WNW 3.3 mph 3.5 mph 97 % 0.00 in
08:13 72.3 °F 71.4 °F 29.84 in West 1.4 mph 5.0 mph 97 % 0.00 in
08:18 72.3 °F 71.4 °F 29.84 in Calm   1.2 mph 97 % 0.00 in
08:23 72.4 °F 71.2 °F 29.84 in West 0.8 mph 4.6 mph 96 % 0.00 in
08:29 72.4 °F 71.2 °F 29.84 in NW 0.2 mph 3.5 mph 96 % 0.00 in
08:34 72.5 °F 71.3 °F 29.85 in WNW 0.8 mph 2.3 mph 96 % 0.00 in
08:39 72.5 °F 71.3 °F 29.85 in West 2.3 mph 6.0 mph 96 % 0.00 in
08:44 72.5 °F 71.0 °F 29.85 in WNW 2.6 mph 4.6 mph 95 % 0.00 in
08:49 72.6 °F 71.1 °F 29.85 in NW 3.1 mph 4.6 mph 95 % 0.00 in
08:54 72.6 °F 71.1 °F 29.85 in WNW 0.2 mph 1.2 mph 95 % 0.00 in
08:59 72.8 °F 71.0 °F 29.85 in WNW 2.6 mph 6.0 mph 94 % 0.00 in
09:04 72.9 °F 71.1 °F 29.85 in Calm   2.3 mph 94 % 0.00 in
09:05 72.9 °F 71.1 °F 29.85 in WNW 1.0 mph 5.0 mph 94 % 0.00 in
09:10 73.1 °F 71.0 °F 29.85 in NW 3.0 mph 5.8 mph 93 % 0.00 in
09:15 73.2 °F 71.1 °F 29.85 in SW 1.3 mph 3.5 mph 93 % 0.00 in
09:20 73.4 °F 70.9 °F 29.86 in NW 1.6 mph 3.5 mph 92 % 0.00 in
09:25 73.5 °F 70.7 °F 29.85 in NNW 2.0 mph 4.6 mph 91 % 0.00 in
09:30 73.7 °F 70.6 °F 29.85 in WNW 2.6 mph 3.5 mph 90 % 0.00 in
09:35 73.9 °F 70.8 °F 29.85 in NNW 2.1 mph 3.5 mph 90 % 0.00 in
09:40 74.1 °F 71.0 °F 29.86 in WNW 1.2 mph 3.5 mph 90 % 0.00 in
09:45 74.4 °F 70.9 °F 29.85 in West 2.8 mph 4.6 mph 89 % 0.00 in
09:50 74.7 °F 70.6 °F 29.85 in WNW 0.7 mph 3.5 mph 87 % 0.00 in
09:55 75.2 °F 70.7 °F 29.86 in North 2.1 mph 4.6 mph 86 % 0.00 in
10:00 75.7 °F 70.9 °F 29.85 in NW 3.1 mph 6.9 mph 85 % 0.00 in
10:05 76.4 °F 71.6 °F 29.86 in NW 0.5 mph 3.5 mph 85 % 0.00 in
10:10 77.3 °F 71.4 °F 29.86 in WNW 1.6 mph 3.5 mph 82 % 0.00 in
10:15 78.3 °F 71.6 °F 29.86 in NNW 0.4 mph 1.2 mph 80 % 0.00 in
10:20 79.1 °F 70.9 °F 29.86 in NNE 3.5 mph 4.6 mph 76 % 0.00 in
10:25 79.9 °F 71.7 °F 29.86 in NW 1.9 mph 3.5 mph 76 % 0.00 in
10:30 80.6 °F 70.7 °F 29.86 in West 3.1 mph 7.0 mph 72 % 0.00 in
10:35 81.3 °F 71.4 °F 29.86 in West 2.3 mph 6.9 mph 72 % 0.00 in
10:40 81.8 °F 71.5 °F 29.87 in NNW 0.8 mph 2.3 mph 71 % 0.00 in
10:45 82.4 °F 71.2 °F 29.86 in WNW 1.8 mph 4.0 mph 69 % 0.00 in
10:50 83.0 °F 70.5 °F 29.87 in North 3.6 mph 4.0 mph 66 % 0.00 in
10:55 83.6 °F 71.0 °F 29.87 in North 1.6 mph 5.0 mph 66 % 0.00 in
11:00 84.2 °F 71.6 °F 29.87 in NW 1.2 mph 3.5 mph 66 % 0.00 in
11:06 84.5 °F 71.0 °F 29.87 in NNW 2.5 mph 4.6 mph 64 % 0.00 in
11:11 84.8 °F 71.3 °F 29.87 in NNW 2.0 mph 7.0 mph 64 % 0.00 in
11:13 85.0 °F 70.5 °F 29.87 in WNW 3.6 mph 5.8 mph 62 % 0.00 in
11:18 85.3 °F 71.7 °F 29.87 in North 1.0 mph 3.5 mph 64 % 0.00 in
11:23 85.7 °F 71.7 °F 29.87 in WNW 2.7 mph 4.0 mph 63 % 0.00 in
11:28 86.3 °F 70.8 °F 29.87 in WNW 3.8 mph 4.6 mph 60 % 0.00 in
11:33 86.5 °F 71.5 °F 29.87 in NNW 1.2 mph 3.5 mph 61 % 0.00 in
11:38 86.8 °F 71.2 °F 29.87 in NW 1.5 mph 4.6 mph 60 % 0.00 in
11:43 87.1 °F 71.0 °F 29.87 in WNW 2.9 mph 4.0 mph 59 % 0.00 in
11:49 87.4 °F 70.8 °F 29.87 in NW 1.4 mph 3.5 mph 58 % 0.00 in
11:54 87.8 °F 71.2 °F 29.87 in North 1.3 mph 3.5 mph 58 % 0.00 in
11:59 88.2 °F 69.5 °F 29.87 in WNW 3.5 mph 4.6 mph 54 % 0.00 in
12:04 88.5 °F 70.8 °F 29.87 in WNW 2.5 mph 4.6 mph 56 % 0.00 in
12:09 88.8 °F 72.1 °F 29.87 in WNW 1.8 mph 3.5 mph 58 % 0.00 in
12:14 89.0 °F 70.7 °F 29.87 in West 2.8 mph 4.6 mph 55 % 0.00 in
12:19 89.1 °F 69.7 °F 29.87 in NNW 0.1 mph 3.5 mph 53 % 0.00 in
12:24 89.2 °F 70.9 °F 29.86 in NW 3.9 mph 6.9 mph 55 % 0.00 in
12:29 89.2 °F 69.8 °F 29.86 in WNW 1.0 mph 8.1 mph 53 % 0.00 in
12:34 89.1 °F 70.3 °F 29.86 in NNE 0.2 mph 3.5 mph 54 % 0.00 in
12:39 89.1 °F 70.8 °F 29.86 in North 3.4 mph 6.9 mph 55 % 0.00 in
12:44 89.0 °F 70.2 °F 29.86 in West 3.6 mph 7.0 mph 54 % 0.00 in
12:49 89.1 °F 69.7 °F 29.86 in NNW 1.6 mph 3.5 mph 53 % 0.00 in
12:54 89.2 °F 70.9 °F 29.87 in North 1.7 mph 3.5 mph 55 % 0.00 in
12:59 89.2 °F 72.0 °F 29.86 in West 2.9 mph 4.6 mph 57 % 0.00 in
13:04 89.4 °F 70.6 °F 29.87 in WNW 4.1 mph 4.1 mph 54 % 0.00 in
13:09 89.4 °F 71.1 °F 29.87 in WNW 2.9 mph 5.8 mph 55 % 0.00 in
13:15 89.3 °F 70.5 °F 29.87 in WNW 4.3 mph 5.8 mph 54 % 0.00 in
13:20 89.4 °F 70.0 °F 29.87 in West 2.0 mph 5.8 mph 53 % 0.00 in
13:25 89.4 °F 70.0 °F 29.87 in WNW 4.4 mph 10.4 mph 53 % 0.00 in
13:30 89.2 °F 69.3 °F 29.87 in North 3.0 mph 5.8 mph 52 % 0.00 in
13:35 89.2 °F 70.4 °F 29.87 in NW 1.3 mph 6.9 mph 54 % 0.00 in
13:40 89.3 °F 70.5 °F 29.88 in NNE 1.0 mph 3.5 mph 54 % 0.00 in
13:45 89.3 °F 71.0 °F 29.87 in NW 3.0 mph 6.9 mph 55 % 0.00 in
13:50 89.2 °F 69.3 °F 29.88 in NNE 3.0 mph 6.9 mph 52 % 0.00 in
13:55 89.3 °F 69.4 °F 29.88 in NNE 3.2 mph 4.6 mph 52 % 0.00 in
14:00 89.4 °F 71.1 °F 29.88 in North 1.6 mph 5.0 mph 55 % 0.00 in
14:05 89.2 °F 68.7 °F 29.88 in NW 2.5 mph 5.8 mph 51 % 0.00 in
14:10 89.1 °F 68.6 °F 29.88 in NNW 0.8 mph 5.8 mph 51 % 0.00 in
14:15 89.0 °F 70.2 °F 29.88 in North 1.9 mph 3.5 mph 54 % 0.00 in
14:20 89.1 °F 69.7 °F 29.88 in NNE 2.1 mph 3.5 mph 53 % 0.00 in
14:25 88.9 °F 69.0 °F 29.88 in NNE 2.0 mph 3.5 mph 52 % 0.00 in
14:30 88.5 °F 68.6 °F 29.88 in NW 3.3 mph 4.6 mph 52 % 0.00 in
14:35 88.6 °F 68.7 °F 29.88 in NW 2.7 mph 3.5 mph 52 % 0.00 in
14:41 88.6 °F 68.2 °F 29.88 in NW 2.0 mph 6.0 mph 51 % 0.00 in
14:46 88.8 °F 68.9 °F 29.88 in NNW 2.0 mph 4.0 mph 52 % 0.00 in
14:51 88.8 °F 68.3 °F 29.88 in NNW 2.0 mph 6.0 mph 51 % 0.00 in
14:56 88.8 °F 68.9 °F 29.88 in NNW 1.0 mph 6.0 mph 52 % 0.00 in
15:01 88.7 °F 67.7 °F 29.88 in WNW 1.6 mph 6.9 mph 50 % 0.00 in
15:06 88.9 °F 68.4 °F 29.88 in WNW 4.1 mph 5.8 mph 51 % 0.00 in
15:11 88.9 °F 67.9 °F 29.88 in NNW 2.0 mph 4.6 mph 50 % 0.00 in
15:16 89.0 °F 67.9 °F 29.88 in NNE 1.3 mph 4.0 mph 50 % 0.00 in
15:21 88.9 °F 68.4 °F 29.88 in North 2.5 mph 4.6 mph 51 % 0.00 in
15:26 88.7 °F 67.7 °F 29.88 in West 3.2 mph 4.6 mph 50 % 0.00 in
15:31 88.8 °F 67.8 °F 29.88 in WNW 2.6 mph 4.6 mph 50 % 0.00 in
15:36 88.7 °F 67.7 °F 29.88 in West 3.6 mph 6.0 mph 50 % 0.00 in
15:41 88.8 °F 68.3 °F 29.88 in NW 0.8 mph 3.5 mph 51 % 0.00 in
15:46 89.0 °F 68.5 °F 29.88 in WNW 2.4 mph 3.5 mph 51 % 0.00 in
15:51 89.1 °F 68.6 °F 29.88 in NW 1.2 mph 3.5 mph 51 % 0.00 in
15:56 89.1 °F 67.5 °F 29.89 in North 0.8 mph 3.5 mph 49 % 0.00 in
16:01 89.1 °F 66.2 °F 29.89 in NW 3.8 mph 8.1 mph 47 % 0.00 in
16:06 89.0 °F 66.2 °F 29.89 in WSW 2.7 mph 3.5 mph 47 % 0.00 in
16:12 89.0 °F 65.5 °F 29.89 in NW 0.8 mph 2.3 mph 46 % 0.00 in
16:17 88.9 °F 66.1 °F 29.89 in NE 1.0 mph 3.5 mph 47 % 0.00 in
16:22 88.7 °F 67.1 °F 29.89 in NW 1.7 mph 3.5 mph 49 % 0.00 in
16:27 88.3 °F 66.1 °F 29.89 in NW 0.8 mph 3.5 mph 48 % 0.00 in
16:32 88.2 °F 64.8 °F 29.89 in West 0.9 mph 4.6 mph 46 % 0.00 in
16:37 88.2 °F 66.0 °F 29.89 in West 3.8 mph 6.0 mph 48 % 0.00 in
16:42 88.2 °F 65.4 °F 29.89 in WSW 2.7 mph 3.5 mph 47 % 0.00 in
16:47 88.2 °F 65.4 °F 29.89 in WNW 1.2 mph 3.5 mph 47 % 0.00 in
16:52 88.0 °F 64.6 °F 29.89 in NNW 1.0 mph 3.5 mph 46 % 0.00 in
16:57 87.7 °F 66.2 °F 29.90 in Calm   4.6 mph 49 % 0.00 in
17:02 87.2 °F 64.5 °F 29.89 in WNW 1.0 mph 2.3 mph 47 % 0.00 in
17:07 86.9 °F 64.8 °F 29.89 in West 2.1 mph 3.5 mph 48 % 0.00 in
17:12 86.8 °F 64.2 °F 29.90 in WNW 1.4 mph 3.5 mph 47 % 0.00 in
17:17 86.5 °F 64.5 °F 29.90 in NW 1.9 mph 3.5 mph 48 % 0.00 in
17:22 86.2 °F 64.8 °F 29.90 in Calm   2.3 mph 49 % 0.00 in
17:27 86.0 °F 64.6 °F 29.90 in NNW 1.1 mph 2.3 mph 49 % 0.00 in
17:32 85.6 °F 64.2 °F 29.90 in West 1.0 mph 3.5 mph 49 % 0.00 in
17:37 85.4 °F 64.6 °F 29.90 in WNW 0.1 mph 1.2 mph 50 % 0.00 in
17:42 85.1 °F 65.5 °F 29.90 in Calm   2.3 mph 52 % 0.00 in
17:47 84.9 °F 64.8 °F 29.90 in WNW 1.8 mph 3.5 mph 51 % 0.00 in
17:52 84.6 °F 65.0 °F 29.91 in West 1.4 mph 3.5 mph 52 % 0.00 in
17:57 84.3 °F 65.3 °F 29.90 in West 0.3 mph 3.5 mph 53 % 0.00 in
18:02 84.0 °F 65.6 °F 29.91 in West 0.3 mph 1.2 mph 54 % 0.00 in
18:07 83.8 °F 65.4 °F 29.91 in Calm     54 % 0.00 in
18:13 83.6 °F 65.2 °F 29.91 in WSW 1.9 mph 3.5 mph 54 % 0.00 in
18:18 83.3 °F 64.9 °F 29.90 in WNW 0.4 mph 3.5 mph 54 % 0.00 in
18:23 83.1 °F 64.7 °F 29.91 in WNW 0.3 mph 2.3 mph 54 % 0.00 in
18:28 83.0 °F 65.2 °F 29.91 in WNW 0.1 mph 1.2 mph 55 % 0.00 in
18:33 82.9 °F 65.6 °F 29.91 in WNW 0.1 mph   56 % 0.00 in
18:38 82.7 °F 64.9 °F 29.91 in Calm   1.2 mph 55 % 0.00 in
18:43 82.5 °F 65.2 °F 29.91 in Calm     56 % 0.00 in
18:48 82.3 °F 65.5 °F 29.91 in Calm     57 % 0.00 in
18:53 82.1 °F 65.9 °F 29.91 in Calm   1.2 mph 58 % 0.00 in
18:58 81.9 °F 65.7 °F 29.91 in WNW 0.4 mph 1.2 mph 58 % 0.00 in
19:03 81.7 °F 65.5 °F 29.91 in Calm     58 % 0.00 in
19:08 81.5 °F 65.8 °F 29.91 in Calm     59 % 0.00 in
19:13 81.3 °F 66.1 °F 29.91 in Calm     60 % 0.00 in
19:18 81.1 °F 66.4 °F 29.91 in WNW 0.1 mph 1.2 mph 61 % 0.00 in
19:23 80.9 °F 65.7 °F 29.91 in Calm     60 % 0.00 in
19:28 80.6 °F 66.4 °F 29.91 in Calm     62 % 0.00 in
19:33 80.4 °F 66.6 °F 29.91 in Calm     63 % 0.00 in
19:38 80.1 °F 66.8 °F 29.92 in Calm     64 % 0.00 in
19:43 79.8 °F 67.0 °F 29.92 in Calm     65 % 0.00 in
19:48 79.5 °F 66.7 °F 29.92 in Calm     65 % 0.00 in
19:53 79.1 °F 67.2 °F 29.92 in Calm     67 % 0.00 in
19:58 78.7 °F 67.2 °F 29.92 in Calm     68 % 0.00 in
20:03 78.4 °F 67.4 °F 29.92 in Calm     69 % 0.00 in
20:08 78.0 °F 67.4 °F 29.92 in Calm     70 % 0.00 in
20:13 77.6 °F 67.4 °F 29.92 in Calm     71 % 0.00 in
20:18 77.3 °F 67.2 °F 29.93 in Calm   1.2 mph 71 % 0.00 in
20:23 77.0 °F 66.9 °F 29.93 in WNW 0.1 mph   71 % 0.00 in
20:28 76.6 °F 66.9 °F 29.93 in Calm     72 % 0.00 in
20:33 76.2 °F 66.9 °F 29.93 in Calm     73 % 0.00 in
20:38 75.9 °F 66.6 °F 29.93 in Calm     73 % 0.00 in
20:43 75.6 °F 66.7 °F 29.93 in Calm     74 % 0.00 in
20:48 75.2 °F 66.7 °F 29.93 in Calm     75 % 0.00 in
20:53 74.8 °F 66.0 °F 29.94 in Calm     74 % 0.00 in
20:58 74.5 °F 66.1 °F 29.94 in Calm   1.0 mph 75 % 0.00 in
21:03 74.2 °F 66.1 °F 29.94 in WNW 0.1 mph 1.2 mph 76 % 0.00 in
21:08 73.9 °F 65.9 °F 29.94 in Calm     76 % 0.00 in
21:09 73.8 °F 65.8 °F 29.94 in Calm     76 % 0.00 in
21:14 73.6 °F 65.9 °F 29.94 in Calm   1.2 mph 77 % 0.00 in
21:19 73.3 °F 65.7 °F 29.94 in Calm     77 % 0.00 in
21:24 73.1 °F 65.5 °F 29.94 in Calm     77 % 0.00 in
21:29 72.9 °F 65.6 °F 29.94 in Calm     78 % 0.00 in
21:34 72.7 °F 65.4 °F 29.94 in Calm     78 % 0.00 in
21:39 72.5 °F 65.2 °F 29.94 in Calm     78 % 0.00 in
21:45 72.3 °F 65.4 °F 29.94 in Calm     79 % 0.00 in
21:50 72.2 °F 65.3 °F 29.94 in Calm     79 % 0.00 in
21:55 72.0 °F 65.1 °F 29.94 in Calm     79 % 0.00 in
22:00 71.8 °F 64.9 °F 29.94 in Calm     79 % 0.00 in
22:05 71.6 °F 65.1 °F 29.94 in Calm     80 % 0.00 in
22:10 71.4 °F 65.3 °F 29.95 in Calm   1.2 mph 81 % 0.00 in
22:15 71.2 °F 65.4 °F 29.95 in WNW 0.1 mph 1.2 mph 82 % 0.00 in
22:20 71.0 °F 64.9 °F 29.95 in Calm     81 % 0.00 in
22:25 70.8 °F 65.0 °F 29.95 in Calm     82 % 0.00 in
22:30 70.7 °F 64.9 °F 29.95 in Calm     82 % 0.00 in
22:35 70.5 °F 64.7 °F 29.95 in Calm     82 % 0.00 in
22:40 70.3 °F 64.5 °F 29.95 in Calm     82 % 0.00 in
22:45 70.2 °F 64.4 °F 29.95 in Calm     82 % 0.00 in
22:50 70.1 °F 64.7 °F 29.95 in Calm     83 % 0.00 in
22:55 69.9 °F 64.5 °F 29.96 in Calm     83 % 0.00 in
23:00 69.7 °F 64.3 °F 29.96 in Calm     83 % 0.00 in
23:05 69.6 °F 64.5 °F 29.96 in Calm     84 % 0.00 in
23:10 69.4 °F 64.0 °F 29.96 in Calm     83 % 0.00 in
23:15 69.3 °F 64.3 °F 29.96 in Calm     84 % 0.00 in
23:20 69.1 °F 64.4 °F 29.96 in Calm     85 % 0.00 in
23:25 69.0 °F 64.3 °F 29.96 in Calm     85 % 0.00 in
23:30 68.9 °F 64.2 °F 29.96 in Calm     85 % 0.00 in
23:35 68.8 °F 64.4 °F 29.97 in Calm     86 % 0.00 in
23:41 68.6 °F 64.2 °F 29.97 in Calm     86 % 0.00 in
23:46 68.5 °F 64.2 °F 29.97 in Calm     86 % 0.00 in
23:51 68.5 °F 64.1 °F 29.97 in Calm     86 % 0.00 in
23:56 68.3 °F 64.0 °F 29.97 in Calm     86 % 0.00 in
Crab Meadow Weather
Compliments of Weather Underground - 3 mb

Script developed by  Jim McMurry - jmcmurry@mwt.net Adapted for the template by  Wim van der Kuil - Leuven-Template.eu

Recycling: In 2006, a record 53.4 percent of the paper consumed in the U.S. was recovered for recycling. Americans recovered an extraordinary 53.5 million tons, averaging 360 pounds per person.